createdAt,value
2018-06-05T00:00:28.399Z,8.60
2018-06-05T00:02:56.594Z,9.20
2018-06-05T00:05:24.798Z,8.77
2018-06-05T00:07:53.077Z,8.77
2018-06-05T00:10:21.300Z,8.70
2018-06-05T00:12:49.557Z,8.50
2018-06-05T00:15:17.797Z,9.57
2018-06-05T00:17:46.054Z,9.13
2018-06-05T00:20:14.308Z,9.77
2018-06-05T00:22:42.520Z,9.37
2018-06-05T00:25:10.708Z,9.03
2018-06-05T00:27:38.982Z,10.13
2018-06-05T00:30:07.210Z,9.43
2018-06-05T00:32:35.403Z,9.27
2018-06-05T00:35:03.634Z,9.50
2018-06-05T00:37:31.839Z,9.40
2018-06-05T00:40:00.099Z,9.63
2018-06-05T00:42:28.312Z,8.90
2018-06-05T00:44:56.519Z,9.90
2018-06-05T00:47:24.761Z,9.80
2018-06-05T00:49:52.992Z,10.63
2018-06-05T00:52:21.224Z,11.07
2018-06-05T00:54:49.465Z,11.07
2018-06-05T00:57:17.671Z,9.77
2018-06-05T00:59:45.927Z,9.80
2018-06-05T01:02:14.167Z,9.97
2018-06-05T01:04:42.387Z,10.70
2018-06-05T01:07:10.599Z,10.80
2018-06-05T01:09:39.348Z,11.73
2018-06-05T01:12:07.668Z,10.93
2018-06-05T01:14:35.871Z,11.63
2018-06-05T01:17:04.096Z,11.13
2018-06-05T01:19:32.332Z,11.60
2018-06-05T01:22:00.600Z,11.57
2018-06-05T01:24:28.817Z,10.50
2018-06-05T01:26:57.990Z,9.87
2018-06-05T01:29:26.227Z,12.07
2018-06-05T01:31:54.427Z,10.67
2018-06-05T01:34:22.676Z,11.03
2018-06-05T01:36:50.911Z,12.07
2018-06-05T01:39:19.112Z,12.77
2018-06-05T01:41:47.344Z,12.30
2018-06-05T01:44:16.156Z,12.23
2018-06-05T01:46:44.385Z,13.10
2018-06-05T01:49:12.708Z,12.37
2018-06-05T01:51:40.981Z,13.27
2018-06-05T01:54:09.181Z,12.70
2018-06-05T01:56:37.404Z,11.43
2018-06-05T01:59:05.645Z,11.77
2018-06-05T02:01:33.840Z,12.03
2018-06-05T02:04:02.082Z,12.20
2018-06-05T02:06:30.340Z,12.33
2018-06-05T02:08:58.542Z,12.83
2018-06-05T02:11:26.771Z,11.73
2018-06-05T02:13:54.992Z,11.47
2018-06-05T02:16:23.200Z,11.67
2018-06-05T02:18:51.440Z,11.50
2018-06-05T02:21:20.518Z,10.67
2018-06-05T02:23:48.739Z,11.40
2018-06-05T02:26:16.985Z,11.57
2018-06-05T02:28:44.963Z,11.17
2018-06-05T02:31:13.172Z,10.87
2018-06-05T02:33:41.135Z,11.07
2018-06-05T02:36:09.116Z,11.03
2018-06-05T02:38:37.076Z,11.00
2018-06-05T02:41:05.309Z,11.43
2018-06-05T02:43:33.588Z,11.87
2018-06-05T02:46:02.792Z,11.00
2018-06-05T02:48:30.997Z,10.87
2018-06-05T02:50:59.216Z,11.90
2018-06-05T02:53:27.413Z,10.13
2018-06-05T02:55:55.656Z,10.90
2018-06-05T02:58:23.850Z,11.03
2018-06-05T03:00:52.068Z,11.27
2018-06-05T03:03:20.292Z,11.70
2018-06-05T03:05:48.812Z,11.70
2018-06-05T03:08:17.816Z,11.17
2018-06-05T03:10:46.036Z,10.93
2018-06-05T03:13:14.336Z,12.17
2018-06-05T03:15:42.564Z,11.07
2018-06-05T03:18:10.796Z,11.27
2018-06-05T03:20:39.064Z,11.70
2018-06-05T03:23:07.268Z,11.07
2018-06-05T03:25:35.491Z,11.53
2018-06-05T03:28:03.707Z,11.70
2018-06-05T03:30:31.926Z,12.27
2018-06-05T03:33:00.143Z,13.30
2018-06-05T03:35:28.456Z,12.73
2018-06-05T03:37:56.683Z,12.47
2018-06-05T03:40:24.930Z,12.37
2018-06-05T03:42:53.633Z,12.27
2018-06-05T03:45:21.593Z,11.70
2018-06-05T03:47:49.893Z,11.57
2018-06-05T03:50:18.084Z,12.23
2018-06-05T03:52:46.340Z,11.27
2018-06-05T03:55:14.577Z,12.77
2018-06-05T03:57:42.812Z,13.10
2018-06-05T04:00:11.097Z,11.93
2018-06-05T04:02:39.359Z,11.37
2018-06-05T04:05:07.583Z,11.90
2018-06-05T04:07:35.820Z,12.07
2018-06-05T04:10:04.086Z,11.43
2018-06-05T04:12:32.280Z,12.00
2018-06-05T04:15:00.528Z,12.13
2018-06-05T04:17:28.804Z,12.07
2018-06-05T04:19:57.063Z,12.80
2018-06-05T04:22:25.041Z,11.83
2018-06-05T04:24:53.016Z,12.67
2018-06-05T04:27:21.266Z,12.50
2018-06-05T04:29:49.487Z,10.97
2018-06-05T04:32:17.732Z,12.17
2018-06-05T04:34:46.087Z,12.90
2018-06-05T04:37:14.325Z,11.10
2018-06-05T04:39:42.825Z,10.97
2018-06-05T04:42:11.064Z,10.53
2018-06-05T04:44:39.280Z,12.83
2018-06-05T04:47:07.640Z,10.90
2018-06-05T04:49:35.940Z,10.83
2018-06-05T04:52:04.185Z,10.10
2018-06-05T04:54:32.418Z,9.87
2018-06-05T04:57:00.737Z,10.37
2018-06-05T04:59:29.012Z,9.87
2018-06-05T05:01:57.220Z,9.97
2018-06-05T05:04:25.452Z,9.93
2018-06-05T05:06:53.674Z,9.67
2018-06-05T05:09:21.912Z,9.10
2018-06-05T05:11:50.096Z,9.27
2018-06-05T05:14:18.331Z,10.33
2018-06-05T05:16:46.544Z,10.10
2018-06-05T05:19:14.771Z,9.23
2018-06-05T05:21:42.988Z,9.90
2018-06-05T05:24:11.200Z,10.23
2018-06-05T05:26:39.440Z,10.03
2018-06-05T05:29:07.680Z,9.93
2018-06-05T05:31:35.905Z,10.53
2018-06-05T05:34:04.133Z,10.40
2018-06-05T05:36:33.016Z,10.27
2018-06-05T05:39:01.341Z,10.53
2018-06-05T05:41:29.596Z,9.97
2018-06-05T05:43:57.811Z,10.67
2018-06-05T05:46:26.072Z,10.30
2018-06-05T05:48:54.265Z,10.03
2018-06-05T05:51:22.507Z,9.10
2018-06-05T05:53:50.700Z,9.47
2018-06-05T05:56:19.029Z,10.70
2018-06-05T05:58:47.253Z,10.60
2018-06-05T06:01:15.474Z,10.37
2018-06-05T06:03:43.725Z,9.50
2018-06-05T06:06:11.908Z,9.87
2018-06-05T06:08:40.156Z,9.87
2018-06-05T06:11:08.391Z,10.10
2018-06-05T06:13:36.596Z,10.10
2018-06-05T06:16:04.924Z,10.10
2018-06-05T06:18:33.136Z,11.20
2018-06-05T06:21:01.380Z,11.10
2018-06-05T06:23:29.583Z,10.30
2018-06-05T06:25:57.801Z,9.67
2018-06-05T06:28:26.065Z,10.10
2018-06-05T06:30:54.252Z,10.90
2018-06-05T06:33:22.483Z,10.53
2018-06-05T06:35:50.724Z,9.10
2018-06-05T06:38:19.825Z,10.13
2018-06-05T06:40:48.856Z,10.57
2018-06-05T06:43:17.091Z,10.40
2018-06-05T06:45:45.323Z,10.60
2018-06-05T06:48:13.636Z,9.70
2018-06-05T06:50:41.836Z,9.20
2018-06-05T06:53:10.031Z,9.70
2018-06-05T06:55:38.281Z,10.70
2018-06-05T06:58:06.496Z,10.07
2018-06-05T07:00:34.973Z,10.20
2018-06-05T07:03:03.207Z,10.13
2018-06-05T07:05:31.424Z,9.70
2018-06-05T07:07:59.635Z,11.37
2018-06-05T07:10:27.903Z,10.57
2018-06-05T07:12:56.112Z,10.63
2018-06-05T07:15:24.332Z,9.73
2018-06-05T07:17:52.580Z,10.93
2018-06-05T07:20:20.808Z,10.80
2018-06-05T07:22:49.044Z,10.60
2018-06-05T07:25:17.340Z,10.37
2018-06-05T07:27:45.566Z,9.90
2018-06-05T07:30:13.818Z,9.73
2018-06-05T07:32:42.117Z,9.90
2018-06-05T07:35:10.317Z,9.90
2018-06-05T07:37:38.512Z,8.93
2018-06-05T07:40:06.748Z,9.47
2018-06-05T07:42:34.965Z,9.77
2018-06-05T07:45:03.183Z,9.13
2018-06-05T07:47:31.438Z,7.80
2018-06-05T07:49:59.679Z,9.80
2018-06-05T07:52:27.860Z,9.10
2018-06-05T07:54:56.079Z,8.33
2018-06-05T07:57:24.304Z,9.33
2018-06-05T07:59:52.569Z,7.93
2018-06-05T08:02:20.755Z,8.53
2018-06-05T08:04:49.009Z,8.47
2018-06-05T08:07:17.204Z,8.23
2018-06-05T08:09:45.395Z,8.37
2018-06-05T08:12:13.862Z,8.10
2018-06-05T08:14:42.093Z,8.70
2018-06-05T08:17:10.304Z,8.17
2018-06-05T08:19:38.521Z,7.97
2018-06-05T08:22:06.844Z,7.60
2018-06-05T08:24:35.186Z,8.37
2018-06-05T08:27:03.371Z,7.70
2018-06-05T08:29:31.609Z,7.53
2018-06-05T08:31:59.864Z,7.43
2018-06-05T08:34:28.064Z,6.83
2018-06-05T08:36:56.277Z,7.87
2018-06-05T08:39:24.592Z,7.97
2018-06-05T08:41:52.898Z,7.70
2018-06-05T08:44:21.118Z,7.47
2018-06-05T08:46:49.333Z,8.27
2018-06-05T08:49:18.172Z,7.70
2018-06-05T08:51:46.400Z,8.13
2018-06-05T08:54:14.611Z,7.73
2018-06-05T08:56:42.849Z,7.00
2018-06-05T08:59:10.788Z,7.40
2018-06-05T09:01:39.024Z,7.47
2018-06-05T09:04:07.380Z,7.80
2018-06-05T09:06:35.617Z,7.07
2018-06-05T09:09:05.894Z,8.07
2018-06-05T09:11:34.117Z,7.77
2018-06-05T09:14:02.356Z,7.47
2018-06-05T09:16:30.592Z,8.60
2018-06-05T09:18:58.921Z,7.90
2018-06-05T09:21:27.147Z,7.33
2018-06-05T09:23:55.361Z,7.53
2018-06-05T09:26:24.540Z,7.93
2018-06-05T09:28:52.749Z,7.20
2018-06-05T09:31:20.961Z,7.27
2018-06-05T09:33:49.192Z,6.63
2018-06-05T09:36:17.458Z,6.30
2018-06-05T09:38:45.662Z,6.80
2018-06-05T09:41:13.876Z,7.27
2018-06-05T09:43:42.089Z,6.63
2018-06-05T09:46:10.348Z,6.97
2018-06-05T09:48:38.556Z,7.77
2018-06-05T09:51:07.229Z,7.67
2018-06-05T09:53:35.192Z,6.50
2018-06-05T09:56:03.457Z,6.87
2018-06-05T09:58:31.694Z,6.80
2018-06-05T10:00:59.873Z,6.87
2018-06-05T10:03:28.118Z,6.50
2018-06-05T10:05:56.321Z,6.70
2018-06-05T10:08:24.513Z,6.37
2018-06-05T10:10:52.735Z,6.23
2018-06-05T10:13:20.960Z,7.07
2018-06-05T10:15:49.172Z,6.67
2018-06-05T10:18:17.403Z,6.80
2018-06-05T10:20:45.631Z,6.60
2018-06-05T10:23:13.812Z,6.97
2018-06-05T10:25:42.057Z,6.10
2018-06-05T10:28:10.277Z,6.20
2018-06-05T10:30:38.497Z,6.90
2018-06-05T10:33:06.700Z,6.37
2018-06-05T10:35:34.671Z,6.20
2018-06-05T10:38:02.888Z,6.60
2018-06-05T10:40:31.136Z,7.10
2018-06-05T10:42:59.367Z,6.60
2018-06-05T10:45:27.578Z,6.70
2018-06-05T10:47:55.780Z,7.17
2018-06-05T10:50:23.991Z,7.20
2018-06-05T10:52:52.245Z,7.83
2018-06-05T10:55:20.461Z,7.30
2018-06-05T10:57:48.711Z,7.27
2018-06-05T11:00:16.922Z,7.77
2018-06-05T11:02:45.149Z,7.57
2018-06-05T11:05:13.402Z,6.97
2018-06-05T11:07:41.606Z,7.20
2018-06-05T11:10:09.904Z,7.43
2018-06-05T11:12:38.110Z,7.23
2018-06-05T11:15:06.321Z,7.20
2018-06-05T11:17:34.553Z,7.27
2018-06-05T11:20:02.801Z,6.73
2018-06-05T11:22:31.131Z,6.00
2018-06-05T11:24:59.357Z,7.03
2018-06-05T11:27:27.680Z,7.40
2018-06-05T11:29:55.908Z,6.83
2018-06-05T11:32:24.226Z,7.03
2018-06-05T11:34:52.416Z,6.90
2018-06-05T11:37:20.637Z,7.10
2018-06-05T11:39:48.916Z,6.93
2018-06-05T11:42:17.124Z,7.33
2018-06-05T11:44:45.348Z,7.63
2018-06-05T11:47:13.616Z,6.13
2018-06-05T11:49:41.846Z,6.83
2018-06-05T11:52:10.085Z,6.23
2018-06-05T11:54:38.327Z,6.37
2018-06-05T11:57:06.521Z,6.13
2018-06-05T11:59:34.732Z,6.10
2018-06-05T12:02:02.953Z,6.30
2018-06-05T12:04:31.181Z,6.20
2018-06-05T12:06:59.382Z,6.70
2018-06-05T12:09:27.679Z,6.53
2018-06-05T12:11:55.940Z,6.70
2018-06-05T12:14:24.156Z,6.57
2018-06-05T12:16:52.408Z,6.13
2018-06-05T12:19:21.151Z,6.17
2018-06-05T12:21:49.694Z,6.63
2018-06-05T12:24:17.895Z,6.17
2018-06-05T12:26:46.256Z,6.20
2018-06-05T12:29:14.207Z,6.40
2018-06-05T12:31:42.540Z,6.67
2018-06-05T12:34:10.751Z,6.50
2018-06-05T12:36:38.957Z,6.63
2018-06-05T12:39:08.253Z,6.77
2018-06-05T12:41:36.524Z,6.60
2018-06-05T12:44:04.859Z,6.03
2018-06-05T12:46:33.076Z,5.70
2018-06-05T12:49:01.072Z,6.10
2018-06-05T12:51:29.294Z,6.03
2018-06-05T12:53:57.514Z,6.50
2018-06-05T12:56:25.742Z,5.90
2018-06-05T12:58:53.956Z,6.10
2018-06-05T13:01:22.209Z,6.20
2018-06-05T13:03:50.416Z,6.23
2018-06-05T13:06:18.613Z,6.43
2018-06-05T13:08:46.860Z,5.70
2018-06-05T13:11:15.034Z,6.87
2018-06-05T13:13:43.278Z,6.23
2018-06-05T13:16:11.504Z,6.60
2018-06-05T13:18:39.821Z,6.47
2018-06-05T13:21:08.032Z,5.90
2018-06-05T13:23:36.231Z,5.83
2018-06-05T13:26:04.493Z,5.97
2018-06-05T13:28:32.681Z,6.03
2018-06-05T13:31:00.900Z,6.37
2018-06-05T13:33:29.108Z,6.97
2018-06-05T13:35:57.340Z,6.80
2018-06-05T13:38:25.561Z,6.10
2018-06-05T13:40:53.789Z,6.20
2018-06-05T13:43:22.008Z,5.87
2018-06-05T13:45:50.443Z,6.37
2018-06-05T13:48:18.676Z,5.87
2018-06-05T13:50:46.904Z,5.93
2018-06-05T13:53:15.115Z,6.05
2018-06-05T13:55:43.092Z,6.22
2018-06-05T13:58:11.351Z,6.07
2018-06-05T14:00:39.620Z,6.10
2018-06-05T14:03:07.861Z,6.07
2018-06-05T14:05:36.220Z,5.57
2018-06-05T14:08:04.692Z,6.27
2018-06-05T14:10:32.928Z,6.03
2018-06-05T14:13:01.191Z,6.07
2018-06-05T14:15:29.393Z,5.77
2018-06-05T14:17:57.631Z,5.80
2018-06-05T14:20:25.836Z,6.20
2018-06-05T14:22:54.076Z,6.07
2018-06-05T14:25:22.299Z,6.27
2018-06-05T14:27:50.529Z,6.10
2018-06-05T14:30:18.741Z,6.80
2018-06-05T14:32:46.964Z,6.43
2018-06-05T14:35:15.216Z,5.08
2018-06-05T14:37:43.441Z,6.17
2018-06-05T14:40:11.667Z,6.28
2018-06-05T14:42:39.872Z,6.40
2018-06-05T14:45:08.168Z,6.20
2018-06-05T14:47:36.298Z,5.97
2018-06-05T14:50:04.568Z,5.43
2018-06-05T14:52:32.872Z,5.83
2018-06-05T14:55:01.106Z,5.40
2018-06-05T14:57:29.327Z,5.75
2018-06-05T14:59:58.513Z,5.25
2018-06-05T15:02:26.468Z,5.22
2018-06-05T15:04:54.708Z,5.17
2018-06-05T15:07:22.982Z,5.47
2018-06-05T15:09:51.189Z,5.35
2018-06-05T15:12:19.399Z,5.17
2018-06-05T15:14:47.703Z,5.30
2018-06-05T15:17:15.933Z,5.17
2018-06-05T15:19:44.164Z,5.37
2018-06-05T15:22:12.380Z,5.62
2018-06-05T15:24:40.624Z,5.62
2018-06-05T15:27:08.892Z,5.20
2018-06-05T15:29:37.201Z,5.37
2018-06-05T15:32:05.752Z,5.65
2018-06-05T15:34:33.963Z,5.67
2018-06-05T15:37:02.177Z,5.27
2018-06-05T15:39:30.467Z,6.83
2018-06-05T15:41:58.724Z,9.10
2018-06-05T15:44:26.952Z,8.50
2018-06-05T15:46:55.141Z,6.30
2018-06-05T15:49:23.368Z,5.73
2018-06-05T15:51:51.600Z,5.50
2018-06-05T15:54:20.521Z,5.50
2018-06-05T15:56:48.754Z,6.00
2018-06-05T15:59:16.960Z,5.60
2018-06-05T16:01:45.212Z,5.37
2018-06-05T16:04:13.449Z,5.77
2018-06-05T16:06:41.656Z,5.93
2018-06-05T16:09:09.919Z,5.90
2018-06-05T16:11:38.116Z,5.47
2018-06-05T16:14:06.354Z,6.13
2018-06-05T16:16:34.547Z,5.60
2018-06-05T16:19:02.853Z,5.80
2018-06-05T16:21:30.808Z,6.00
2018-06-05T16:23:58.779Z,6.17
2018-06-05T16:26:27.017Z,5.30
2018-06-05T16:28:55.236Z,6.37
2018-06-05T16:31:23.583Z,5.73
2018-06-05T16:33:51.790Z,6.20
2018-06-05T16:36:20.079Z,5.80
2018-06-05T16:38:48.316Z,5.97
2018-06-05T16:41:16.734Z,6.37
2018-06-05T16:43:44.996Z,5.43
2018-06-05T16:46:13.220Z,5.93
2018-06-05T16:48:41.428Z,5.77
2018-06-05T16:51:09.657Z,5.60
2018-06-05T16:53:37.648Z,6.10
2018-06-05T16:56:05.879Z,6.00
2018-06-05T16:58:34.135Z,6.07
2018-06-05T17:01:02.374Z,6.50
2018-06-05T17:03:30.591Z,6.00
2018-06-05T17:05:58.824Z,5.90
2018-06-05T17:08:27.059Z,5.97
2018-06-05T17:10:55.285Z,6.03
2018-06-05T17:13:23.600Z,6.83
2018-06-05T17:15:51.832Z,7.60
2018-06-05T17:18:20.046Z,6.93
2018-06-05T17:20:48.270Z,5.90
2018-06-05T17:23:16.479Z,6.67
2018-06-05T17:25:44.753Z,6.00
2018-06-05T17:28:13.008Z,5.90
2018-06-05T17:30:41.237Z,5.97
2018-06-05T17:33:09.429Z,6.07
2018-06-05T17:35:37.684Z,6.20
2018-06-05T17:38:05.975Z,5.27
2018-06-05T17:40:34.465Z,6.03
2018-06-05T17:43:02.672Z,6.43
2018-06-05T17:45:30.978Z,6.17
2018-06-05T17:47:59.178Z,5.80
2018-06-05T17:50:27.388Z,5.70
2018-06-05T17:52:55.593Z,5.53
2018-06-05T17:55:23.890Z,5.63
2018-06-05T17:57:52.112Z,6.40
2018-06-05T18:00:20.324Z,6.00
2018-06-05T18:02:48.567Z,5.90
2018-06-05T18:05:24.732Z,5.93
2018-06-05T18:07:53.029Z,6.23
2018-06-05T18:10:21.240Z,6.67
2018-06-05T18:12:49.485Z,6.60
2018-06-05T18:15:17.704Z,6.57
2018-06-05T18:17:45.953Z,6.70
2018-06-05T18:20:14.168Z,6.73
2018-06-05T18:22:42.413Z,6.93
2018-06-05T18:25:10.640Z,6.83
2018-06-05T18:27:38.928Z,6.80
2018-06-05T18:30:07.145Z,6.70
2018-06-05T18:32:35.377Z,6.10
2018-06-05T18:35:03.608Z,6.47
2018-06-05T18:37:31.845Z,6.53
2018-06-05T18:40:00.189Z,7.00
2018-06-05T18:42:28.388Z,6.40
2018-06-05T18:44:56.589Z,6.80
2018-06-05T18:47:24.820Z,6.90
2018-06-05T18:49:53.028Z,6.50
2018-06-05T18:52:21.276Z,7.60
2018-06-05T18:54:49.471Z,7.20
2018-06-05T18:57:17.672Z,6.70
2018-06-05T18:59:45.912Z,7.57
2018-06-05T19:02:14.244Z,7.93
2018-06-05T19:04:42.612Z,6.93
2018-06-05T19:07:10.824Z,7.77
2018-06-05T19:09:39.036Z,6.93
2018-06-05T19:12:07.275Z,7.27
2018-06-05T19:14:35.535Z,7.13
2018-06-05T19:17:03.724Z,7.73
2018-06-05T19:19:32.131Z,7.10
2018-06-05T19:22:00.367Z,7.20
2018-06-05T19:24:28.632Z,7.47
2018-06-05T19:26:56.872Z,7.57
2018-06-05T19:29:25.112Z,7.30
2018-06-05T19:31:53.382Z,7.73
2018-06-05T19:34:21.581Z,8.13
2018-06-05T19:36:49.878Z,8.00
2018-06-05T19:39:18.108Z,9.30
2018-06-05T19:41:46.081Z,7.40
2018-06-05T19:44:14.328Z,8.40
2018-06-05T19:46:42.581Z,7.03
2018-06-05T19:49:10.806Z,8.33
2018-06-05T19:51:39.009Z,7.93
2018-06-05T19:54:07.273Z,9.07
2018-06-05T19:56:35.485Z,11.23
2018-06-05T19:59:03.767Z,7.97
2018-06-05T20:01:31.992Z,8.33
2018-06-05T20:04:00.363Z,8.80
2018-06-05T20:06:28.592Z,9.53
2018-06-05T20:08:56.849Z,8.13
2018-06-05T20:11:25.088Z,8.40
2018-06-05T20:13:53.325Z,9.07
2018-06-05T20:16:21.574Z,9.53
2018-06-05T20:18:49.835Z,9.10
2018-06-05T20:21:18.059Z,8.40
2018-06-05T20:23:46.579Z,8.80
2018-06-05T20:26:14.825Z,9.53
2018-06-05T20:28:43.130Z,8.77
2018-06-05T20:31:11.324Z,8.60
2018-06-05T20:33:39.542Z,9.07
2018-06-05T20:36:07.752Z,8.97
2018-06-05T20:38:35.984Z,9.43
2018-06-05T20:41:04.238Z,9.93
2018-06-05T20:43:32.456Z,9.80
2018-06-05T20:46:00.666Z,9.80
2018-06-05T20:48:28.921Z,10.67
2018-06-05T20:50:58.362Z,9.97
2018-06-05T20:53:26.589Z,10.33
2018-06-05T20:55:54.852Z,9.30
2018-06-05T20:58:23.220Z,10.17
2018-06-05T21:00:51.473Z,9.73
2018-06-05T21:03:19.710Z,11.30
2018-06-05T21:05:47.903Z,10.40
2018-06-05T21:08:16.166Z,10.97
2018-06-05T21:10:44.469Z,10.97
2018-06-05T21:13:12.678Z,10.73
2018-06-05T21:15:40.883Z,10.17
2018-06-05T21:18:09.111Z,10.77
2018-06-05T21:20:37.323Z,10.40
2018-06-05T21:23:05.843Z,10.77
2018-06-05T21:25:34.048Z,11.60
2018-06-05T21:28:02.232Z,11.77
2018-06-05T21:30:30.528Z,11.27
2018-06-05T21:32:58.802Z,11.20
2018-06-05T21:35:27.044Z,11.13
2018-06-05T21:37:55.255Z,12.13
2018-06-05T21:40:23.473Z,11.97
2018-06-05T21:42:51.709Z,11.47
2018-06-05T21:45:19.959Z,11.80
2018-06-05T21:47:48.225Z,11.73
2018-06-05T21:50:16.472Z,11.57
2018-06-05T21:52:44.672Z,11.43
2018-06-05T21:55:12.911Z,12.10
2018-06-05T21:57:41.259Z,12.20
2018-06-05T22:00:09.526Z,13.80
2018-06-05T22:02:37.861Z,13.87
2018-06-05T22:05:06.076Z,13.17
2018-06-05T22:07:34.337Z,14.33
2018-06-05T22:10:02.556Z,13.07
2018-06-05T22:12:30.778Z,14.07
2018-06-05T22:14:58.989Z,13.63
2018-06-05T22:17:27.236Z,13.13
2018-06-05T22:19:55.439Z,13.17
2018-06-05T22:22:23.685Z,13.60
2018-06-05T22:24:51.917Z,12.53
2018-06-05T22:27:20.137Z,13.87
2018-06-05T22:29:48.336Z,13.10
2018-06-05T22:32:16.605Z,13.60
2018-06-05T22:34:44.845Z,13.93
2018-06-05T22:37:13.048Z,13.47
2018-06-05T22:39:41.288Z,13.50
2018-06-05T22:42:09.496Z,14.03
2018-06-05T22:44:37.738Z,13.70
2018-06-05T22:47:05.952Z,14.67
2018-06-05T22:49:34.173Z,15.07
2018-06-05T22:52:02.508Z,14.80
2018-06-05T22:54:30.696Z,15.20
2018-06-05T22:56:58.933Z,15.03
2018-06-05T22:59:27.164Z,15.00
2018-06-05T23:01:55.361Z,15.13
2018-06-05T23:04:23.576Z,15.10
2018-06-05T23:06:51.783Z,15.23
2018-06-05T23:09:20.029Z,15.37
2018-06-05T23:11:48.256Z,16.17
2018-06-05T23:14:16.468Z,16.00
2018-06-05T23:16:44.701Z,16.77
2018-06-05T23:19:12.904Z,16.13
2018-06-05T23:21:41.152Z,15.73
2018-06-05T23:24:09.376Z,16.10
2018-06-05T23:26:37.567Z,15.93
2018-06-05T23:29:05.805Z,16.47
2018-06-05T23:31:34.023Z,17.63
2018-06-05T23:34:02.249Z,17.07
2018-06-05T23:36:30.449Z,17.40
2018-06-05T23:38:58.683Z,17.87
2018-06-05T23:41:26.954Z,18.13
2018-06-05T23:43:55.180Z,16.63
2018-06-05T23:46:23.380Z,17.83
2018-06-05T23:48:51.715Z,16.87
2018-06-05T23:51:19.905Z,17.60
2018-06-05T23:53:48.152Z,17.03
2018-06-05T23:56:16.382Z,18.07
2018-06-05T23:58:44.588Z,16.67
